Time;durP1;ratioP1;P1;durP2;ratioP2;P2;SDS_P1;SDS_P2;PMS_P1;PMS_P2;Temp;Humidity;BMP_temperature;BMP_pressure;BME280_temperature;BME280_humidity;BME280_pressure;Samples;Min_cycle;Max_cycle;Signal;HPM_P1;HPM_P2
2024/01/20 00:02:01;;;;;;;16.07;5.87;;;;;;;;;;5080400;28;20048;-75
2024/01/20 00:04:26;;;;;;;14.07;6.80;;;;;;;;;;5075415;28;20400;-76
2024/01/20 00:06:51;;;;;;;14.50;6.80;;;;;;;;;;5069677;28;20075;-76
2024/01/20 00:09:17;;;;;;;17.10;7.27;;;;;;;;;;5073333;28;20036;-76
2024/01/20 00:11:42;;;;;;;17.37;5.70;;;;;;;;;;5075066;28;20031;-76
2024/01/20 00:14:07;;;;;;;17.93;7.53;;;;;;;;;;5073939;28;20055;-75
2024/01/20 00:16:32;;;;;;;15.00;5.57;;;;;;;;;;5074529;28;20428;-76
2024/01/20 00:18:58;;;;;;;14.60;6.57;;;;;;;;;;5078702;28;20412;-76
2024/01/20 00:21:23;;;;;;;15.37;6.97;;;;;;;;;;5073752;28;20155;-76
2024/01/20 00:23:48;;;;;;;15.73;6.53;;;;;;;;;;5073607;28;20028;-76
2024/01/20 00:26:13;;;;;;;13.13;6.03;;;;;;;;;;5073727;28;20401;-75
2024/01/20 00:28:38;;;;;;;17.07;7.63;;;;;;;;;;5077651;28;20027;-76
2024/01/20 00:31:04;;;;;;;14.37;5.90;;;;;;;;;;5083976;28;20029;-76
2024/01/20 00:33:29;;;;;;;16.23;6.77;;;;;;;;;;5075631;28;20498;-76
2024/01/20 00:35:55;;;;;;;15.60;6.40;;;;;;;;;;5072253;28;20128;-76
2024/01/20 00:38:20;;;;;;;12.50;6.40;;;;;;;;;;5078813;28;20047;-76
2024/01/20 00:40:45;;;;;;;16.63;7.97;;;;;;;;;;5076655;28;20036;-76
2024/01/20 00:43:10;;;;;;;15.30;6.70;;;;;;;;;;5076964;28;20396;-76
2024/01/20 00:45:35;;;;;;;15.80;6.87;;;;;;;;;;5073456;28;20032;-76
2024/01/20 00:48:01;;;;;;;14.67;6.67;;;;;;;;;;5073281;28;20032;-76
2024/01/20 00:50:26;;;;;;;21.20;7.30;;;;;;;;;;5077698;28;20038;-75
2024/01/20 00:52:51;;;;;;;16.93;6.63;;;;;;;;;;5072959;28;20040;-75
2024/01/20 00:55:16;;;;;;;15.23;5.83;;;;;;;;;;5073300;28;20040;-76
2024/01/20 00:57:42;;;;;;;12.03;5.97;;;;;;;;;;5055317;28;20119;-76
2024/01/20 01:00:11;;;;;;;16.57;6.77;;;;;;;;;;5077261;28;20063;-76
2024/01/20 01:02:37;;;;;;;15.07;6.60;;;;;;;;;;5075926;28;20035;-76
2024/01/20 01:05:02;;;;;;;12.90;6.27;;;;;;;;;;5071509;28;20408;-75
2024/01/20 01:07:27;;;;;;;12.30;6.53;;;;;;;;;;5072908;28;20029;-76
2024/01/20 01:09:52;;;;;;;14.43;5.43;;;;;;;;;;5077203;28;20032;-76
2024/01/20 01:12:18;;;;;;;15.23;5.73;;;;;;;;;;5072964;28;20029;-76
2024/01/20 01:14:43;;;;;;;12.67;6.03;;;;;;;;;;5072651;28;20423;-76
2024/01/20 01:17:08;;;;;;;17.53;7.20;;;;;;;;;;5072660;28;20039;-74
2024/01/20 01:19:33;;;;;;;14.37;5.70;;;;;;;;;;5076604;28;20058;-76
2024/01/20 01:21:58;;;;;;;12.17;5.93;;;;;;;;;;5072653;28;20054;-75
2024/01/20 01:24:24;;;;;;;14.53;5.57;;;;;;;;;;5072811;28;20477;-76
2024/01/20 01:26:49;;;;;;;13.37;6.00;;;;;;;;;;5080489;28;20028;-76
2024/01/20 01:29:14;;;;;;;15.63;6.20;;;;;;;;;;5077090;28;20489;-76
2024/01/20 01:31:39;;;;;;;13.47;7.10;;;;;;;;;;5079377;28;20082;-76
2024/01/20 01:34:04;;;;;;;17.03;6.77;;;;;;;;;;5078052;28;20059;-75
2024/01/20 01:36:29;;;;;;;16.93;6.63;;;;;;;;;;5076493;28;20038;-76
2024/01/20 01:38:55;;;;;;;13.13;6.17;;;;;;;;;;5075650;28;20082;-75
2024/01/20 01:41:20;;;;;;;17.27;8.27;;;;;;;;;;5079097;28;20468;-76
2024/01/20 01:43:45;;;;;;;15.20;6.90;;;;;;;;;;5074207;28;20033;-76
2024/01/20 01:46:10;;;;;;;16.17;6.90;;;;;;;;;;5072152;28;20141;-76
2024/01/20 01:48:36;;;;;;;15.17;6.90;;;;;;;;;;5074471;28;20630;-76
2024/01/20 01:51:02;;;;;;;18.37;5.70;;;;;;;;;;5073829;28;20454;-75
2024/01/20 01:53:27;;;;;;;13.60;6.87;;;;;;;;;;5079777;28;20028;-76
2024/01/20 01:55:53;;;;;;;16.60;6.47;;;;;;;;;;5073422;28;20040;-74
2024/01/20 01:58:18;;;;;;;15.27;6.10;;;;;;;;;;5072113;28;20484;-75
2024/01/20 02:00:43;;;;;;;17.03;7.13;;;;;;;;;;5077211;28;20032;-76
2024/01/20 02:03:09;;;;;;;15.83;7.40;;;;;;;;;;5075619;28;20657;-75
2024/01/20 02:05:34;;;;;;;13.73;6.57;;;;;;;;;;5072034;28;20041;-75
2024/01/20 02:08:00;;;;;;;13.67;6.00;;;;;;;;;;5071832;28;20037;-75
2024/01/20 02:10:25;;;;;;;14.63;5.87;;;;;;;;;;5075392;28;20032;-75
2024/01/20 02:12:50;;;;;;;14.73;5.83;;;;;;;;;;5071439;28;20032;-75
2024/01/20 02:15:15;;;;;;;14.67;5.90;;;;;;;;;;5071769;28;20028;-75
2024/01/20 02:17:50;;;;;;;13.33;5.83;;;;;;;;;;5071681;28;20052;-75
2024/01/20 02:20:15;;;;;;;14.00;6.20;;;;;;;;;;5075794;28;20082;-75
2024/01/20 02:22:41;;;;;;;15.87;5.83;;;;;;;;;;5070136;28;20041;-75
2024/01/20 02:25:06;;;;;;;14.07;5.97;;;;;;;;;;5071290;28;20032;-75
2024/01/20 02:27:31;;;;;;;13.10;6.47;;;;;;;;;;5071373;28;20044;-75
2024/01/20 02:29:56;;;;;;;13.07;6.77;;;;;;;;;;5075088;28;20496;-75
2024/01/20 02:32:21;;;;;;;12.97;5.87;;;;;;;;;;5076458;28;20039;-76
2024/01/20 02:34:47;;;;;;;14.97;6.17;;;;;;;;;;5071347;28;20025;-76
2024/01/20 02:37:12;;;;;;;12.07;5.23;;;;;;;;;;5071092;28;20028;-76
2024/01/20 02:39:37;;;;;;;12.13;5.37;;;;;;;;;;5078946;28;20028;-75
2024/01/20 02:42:02;;;;;;;12.73;5.97;;;;;;;;;;5071100;28;20471;-76
2024/01/20 02:44:28;;;;;;;18.10;7.07;;;;;;;;;;5070887;28;20028;-76
2024/01/20 02:46:53;;;;;;;12.07;4.90;;;;;;;;;;5073913;28;20025;-76
2024/01/20 02:49:19;;;;;;;15.10;5.53;;;;;;;;;;5074249;28;20032;-75
2024/01/20 02:51:44;;;;;;;15.07;6.17;;;;;;;;;;5074351;28;20048;-76
2024/01/20 02:54:09;;;;;;;13.17;5.83;;;;;;;;;;5072603;28;20029;-75
2024/01/20 02:56:34;;;;;;;11.07;5.30;;;;;;;;;;5071353;28;20047;-75
2024/01/20 02:58:59;;;;;;;14.17;6.23;;;;;;;;;;5075795;28;20070;-74
2024/01/20 03:01:25;;;;;;;10.20;4.87;;;;;;;;;;5073213;28;20024;-75
2024/01/20 03:03:50;;;;;;;11.10;5.17;;;;;;;;;;5071337;28;20107;-75
2024/01/20 03:06:15;;;;;;;10.87;5.13;;;;;;;;;;5070753;28;20027;-76
2024/01/20 03:08:40;;;;;;;12.57;6.00;;;;;;;;;;5072293;28;20024;-75
2024/01/20 03:11:06;;;;;;;15.00;6.20;;;;;;;;;;5072683;28;20033;-74
2024/01/20 03:13:31;;;;;;;13.57;5.77;;;;;;;;;;5070338;28;20116;-76
2024/01/20 03:15:56;;;;;;;11.50;5.37;;;;;;;;;;5070507;28;20082;-75
2024/01/20 03:18:21;;;;;;;11.47;5.50;;;;;;;;;;5070595;28;20047;-75
2024/01/20 03:20:46;;;;;;;13.40;5.87;;;;;;;;;;5072805;28;20036;-76
2024/01/20 03:23:11;;;;;;;12.70;5.33;;;;;;;;;;5072370;28;20100;-75
2024/01/20 03:25:37;;;;;;;10.80;5.80;;;;;;;;;;5070521;28;20024;-75
2024/01/20 03:28:02;;;;;;;11.37;5.23;;;;;;;;;;5073319;28;20374;-75
2024/01/20 03:30:27;;;;;;;16.63;6.53;;;;;;;;;;5082976;28;20046;-75
2024/01/20 03:32:52;;;;;;;13.50;5.53;;;;;;;;;;5073233;28;20555;-75
2024/01/20 03:35:17;;;;;;;14.10;5.80;;;;;;;;;;5072144;28;20057;-75
2024/01/20 03:37:43;;;;;;;15.40;6.10;;;;;;;;;;5072439;28;20089;-76
2024/01/20 03:40:08;;;;;;;8.80;4.70;;;;;;;;;;5072975;28;21176;-75
2024/01/20 03:42:33;;;;;;;13.30;5.63;;;;;;;;;;5070262;28;20103;-75
2024/01/20 03:44:58;;;;;;;12.83;6.03;;;;;;;;;;5068950;28;20025;-75
2024/01/20 03:47:24;;;;;;;14.73;5.23;;;;;;;;;;5070419;28;20513;-76
2024/01/20 03:49:49;;;;;;;14.73;5.80;;;;;;;;;;5073851;28;20044;-76
2024/01/20 03:52:14;;;;;;;16.87;5.93;;;;;;;;;;5071229;28;20074;-76
2024/01/20 03:54:39;;;;;;;11.60;4.70;;;;;;;;;;5072750;28;20734;-76
2024/01/20 03:57:05;;;;;;;11.00;5.03;;;;;;;;;;5071257;28;20118;-76
2024/01/20 03:59:30;;;;;;;12.50;5.40;;;;;;;;;;5071868;28;20051;-76
2024/01/20 04:01:55;;;;;;;9.63;5.13;;;;;;;;;;5073571;28;20039;-77
2024/01/20 04:04:20;;;;;;;14.73;6.40;;;;;;;;;;5069764;28;20484;-76
2024/01/20 04:06:45;;;;;;;17.50;5.67;;;;;;;;;;5068557;28;20067;-76
2024/01/20 04:09:11;;;;;;;12.93;5.60;;;;;;;;;;5071706;28;20032;-76
2024/01/20 04:11:36;;;;;;;10.17;5.37;;;;;;;;;;5079227;28;20020;-76
2024/01/20 04:14:02;;;;;;;13.43;5.60;;;;;;;;;;5070143;28;20111;-76
2024/01/20 04:16:27;;;;;;;11.30;5.00;;;;;;;;;;5069814;28;20033;-76
2024/01/20 04:18:52;;;;;;;15.47;6.17;;;;;;;;;;5071436;28;20024;-77
2024/01/20 04:21:17;;;;;;;12.80;5.63;;;;;;;;;;5069635;28;20078;-76
2024/01/20 04:23:42;;;;;;;15.30;5.80;;;;;;;;;;5068130;28;20021;-76
2024/01/20 04:26:07;;;;;;;10.93;5.50;;;;;;;;;;5069559;28;20043;-75
2024/01/20 04:28:33;;;;;;;11.73;4.97;;;;;;;;;;5069352;28;20103;-76
2024/01/20 04:30:58;;;;;;;13.53;5.43;;;;;;;;;;5070414;28;20043;-75
2024/01/20 04:33:23;;;;;;;13.00;5.37;;;;;;;;;;5076893;28;20031;-76
2024/01/20 04:35:48;;;;;;;15.80;5.30;;;;;;;;;;5074624;28;20078;-76
2024/01/20 04:38:13;;;;;;;11.90;4.50;;;;;;;;;;5073189;28;20028;-76
2024/01/20 04:40:38;;;;;;;13.03;5.10;;;;;;;;;;5077390;28;20028;-76
2024/01/20 04:43:04;;;;;;;11.97;5.63;;;;;;;;;;5069156;28;20020;-76
2024/01/20 04:45:29;;;;;;;12.93;5.73;;;;;;;;;;5073514;28;20029;-76
2024/01/20 04:47:54;;;;;;;11.10;5.27;;;;;;;;;;5077669;28;20030;-76
2024/01/20 04:50:19;;;;;;;15.00;5.83;;;;;;;;;;5071677;28;20032;-76
2024/01/20 04:52:44;;;;;;;10.97;4.97;;;;;;;;;;5078760;28;20107;-75
2024/01/20 04:55:09;;;;;;;12.13;5.70;;;;;;;;;;5076265;28;20040;-76
2024/01/20 04:57:35;;;;;;;13.27;5.20;;;;;;;;;;5075208;28;20032;-75
2024/01/20 05:00:00;;;;;;;12.47;5.73;;;;;;;;;;5078553;28;20062;-75
2024/01/20 05:02:25;;;;;;;13.20;5.73;;;;;;;;;;5075584;28;20391;-77
2024/01/20 05:04:50;;;;;;;14.53;5.53;;;;;;;;;;5072911;28;20036;-76
2024/01/20 05:07:16;;;;;;;12.07;5.30;;;;;;;;;;5072716;28;20511;-76
2024/01/20 05:09:41;;;;;;;10.13;5.63;;;;;;;;;;5075469;28;20037;-76
2024/01/20 05:12:06;;;;;;;15.80;5.57;;;;;;;;;;5072732;28;20029;-76
2024/01/20 05:14:31;;;;;;;13.10;5.93;;;;;;;;;;5072784;28;20032;-76
2024/01/20 05:16:56;;;;;;;14.47;5.83;;;;;;;;;;5072714;28;20048;-75
2024/01/20 05:19:22;;;;;;;13.30;5.73;;;;;;;;;;5073729;28;20040;-76
2024/01/20 05:21:47;;;;;;;10.60;5.07;;;;;;;;;;5077689;28;20116;-76
2024/01/20 05:24:13;;;;;;;11.53;6.00;;;;;;;;;;5078271;28;20029;-76
2024/01/20 05:26:39;;;;;;;13.50;5.67;;;;;;;;;;5076228;28;20041;-76
2024/01/20 05:29:04;;;;;;;11.73;6.23;;;;;;;;;;5073559;28;20038;-77
2024/01/20 05:31:31;;;;;;;12.60;6.03;;;;;;;;;;5074606;28;20085;-76
2024/01/20 05:33:57;;;;;;;13.03;6.07;;;;;;;;;;5078135;28;20511;-75
2024/01/20 05:36:22;;;;;;;12.47;5.60;;;;;;;;;;5075436;28;20107;-76
2024/01/20 05:38:47;;;;;;;13.70;5.47;;;;;;;;;;5079681;28;20119;-76
2024/01/20 05:41:12;;;;;;;10.27;5.23;;;;;;;;;;5081744;28;20435;-76
2024/01/20 05:43:37;;;;;;;11.87;5.43;;;;;;;;;;5077851;28;20048;-76
2024/01/20 05:46:06;;;;;;;15.07;5.90;;;;;;;;;;5072561;28;20100;-76
2024/01/20 05:48:32;;;;;;;11.67;5.47;;;;;;;;;;5078495;28;20032;-76
2024/01/20 05:50:58;;;;;;;15.17;5.20;;;;;;;;;;5075997;28;20045;-76
2024/01/20 05:53:23;;;;;;;13.33;6.03;;;;;;;;;;5073866;28;20102;-76
2024/01/20 05:55:48;;;;;;;10.27;5.00;;;;;;;;;;5074113;28;20031;-76
2024/01/20 05:58:14;;;;;;;9.80;5.20;;;;;;;;;;5076747;28;20031;-76
2024/01/20 06:00:39;;;;;;;14.40;6.70;;;;;;;;;;5076213;28;20021;-76
2024/01/20 06:03:04;;;;;;;10.53;5.20;;;;;;;;;;5072197;28;20531;-76
2024/01/20 06:05:31;;;;;;;12.00;5.17;;;;;;;;;;5073563;28;20115;-76
2024/01/20 06:07:56;;;;;;;13.10;4.97;;;;;;;;;;5071075;28;20440;-76
2024/01/20 06:10:21;;;;;;;12.43;5.17;;;;;;;;;;5072121;28;20037;-76
2024/01/20 06:12:46;;;;;;;12.87;5.70;;;;;;;;;;5071806;28;20047;-76
2024/01/20 06:15:11;;;;;;;13.43;5.47;;;;;;;;;;5071680;28;20122;-75
2024/01/20 06:17:37;;;;;;;13.93;5.80;;;;;;;;;;5075170;28;20040;-76
2024/01/20 06:20:03;;;;;;;13.93;5.60;;;;;;;;;;5075693;28;20032;-76
2024/01/20 06:22:28;;;;;;;10.07;5.00;;;;;;;;;;5072931;28;20020;-76
2024/01/20 06:24:54;;;;;;;14.37;5.27;;;;;;;;;;5075625;28;20483;-76
2024/01/20 06:27:19;;;;;;;10.93;5.33;;;;;;;;;;5071647;28;20039;-76
2024/01/20 06:29:44;;;;;;;12.20;5.90;;;;;;;;;;5077525;28;20024;-76
2024/01/20 06:32:10;;;;;;;15.37;5.90;;;;;;;;;;5071488;28;20063;-76
2024/01/20 06:34:35;;;;;;;13.47;6.00;;;;;;;;;;5073570;28;20078;-76
2024/01/20 06:37:00;;;;;;;11.40;4.80;;;;;;;;;;5073871;28;20025;-76
2024/01/20 06:39:25;;;;;;;8.63;5.13;;;;;;;;;;5078417;28;20039;-76
2024/01/20 06:41:51;;;;;;;13.03;5.43;;;;;;;;;;5079271;28;20032;-77
2024/01/20 06:44:16;;;;;;;11.07;5.27;;;;;;;;;;5079629;28;20086;-75
2024/01/20 06:46:41;;;;;;;9.67;4.33;;;;;;;;;;5078280;28;20032;-75
2024/01/20 06:49:06;;;;;;;10.10;4.60;;;;;;;;;;5078608;28;20039;-75
2024/01/20 06:51:32;;;;;;;10.67;5.30;;;;;;;;;;5076114;28;20099;-75
2024/01/20 06:53:57;;;;;;;11.70;5.33;;;;;;;;;;5069260;28;20037;-76
2024/01/20 06:56:25;;;;;;;12.03;4.90;;;;;;;;;;5077299;28;20409;-75
2024/01/20 06:58:53;;;;;;;14.53;5.47;;;;;;;;;;5076619;28;20020;-75
2024/01/20 07:01:18;;;;;;;11.63;4.87;;;;;;;;;;5079696;28;20138;-76
2024/01/20 07:03:44;;;;;;;8.20;4.10;;;;;;;;;;5072416;28;20514;-75
2024/01/20 07:06:09;;;;;;;10.20;4.53;;;;;;;;;;5070565;28;20048;-75
2024/01/20 07:08:34;;;;;;;8.23;4.27;;;;;;;;;;5070046;28;20044;-76
2024/01/20 07:10:59;;;;;;;9.13;4.30;;;;;;;;;;5077200;28;20489;-75
2024/01/20 07:13:25;;;;;;;9.93;4.23;;;;;;;;;;5070389;28;20032;-75
2024/01/20 07:15:50;;;;;;;10.00;4.90;;;;;;;;;;5070440;28;20218;-75
2024/01/20 07:18:16;;;;;;;12.20;4.13;;;;;;;;;;5070337;28;20025;-75
2024/01/20 07:20:41;;;;;;;8.13;3.90;;;;;;;;;;5078562;28;20062;-74
2024/01/20 07:23:06;;;;;;;9.67;4.13;;;;;;;;;;5082312;28;20028;-74
2024/01/20 07:25:36;;;;;;;11.60;5.10;;;;;;;;;;5088380;28;20024;-73
2024/01/20 07:28:01;;;;;;;9.63;5.07;;;;;;;;;;5087043;28;20471;-74
2024/01/20 07:30:26;;;;;;;9.33;4.87;;;;;;;;;;5081541;28;20036;-76
2024/01/20 07:32:51;;;;;;;10.50;4.53;;;;;;;;;;5081640;28;20103;-75
2024/01/20 07:35:17;;;;;;;11.13;4.83;;;;;;;;;;5075587;28;20141;-75
2024/01/20 07:37:42;;;;;;;10.90;5.17;;;;;;;;;;5080608;28;20032;-75
2024/01/20 07:40:09;;;;;;;9.97;4.10;;;;;;;;;;5083669;28;20107;-75
2024/01/20 07:42:34;;;;;;;9.30;4.37;;;;;;;;;;5082485;28;20073;-75
2024/01/20 07:44:59;;;;;;;10.73;4.87;;;;;;;;;;5080728;28;20032;-74
2024/01/20 07:47:25;;;;;;;12.90;4.93;;;;;;;;;;5079107;28;20016;-75
2024/01/20 07:49:50;;;;;;;9.53;4.87;;;;;;;;;;5084511;28;20111;-75
2024/01/20 07:52:15;;;;;;;10.47;4.37;;;;;;;;;;5085067;28;20551;-75
2024/01/20 07:54:40;;;;;;;9.30;4.70;;;;;;;;;;5089502;28;20039;-76
2024/01/20 07:57:05;;;;;;;7.73;4.87;;;;;;;;;;5088732;28;20400;-74
2024/01/20 07:59:31;;;;;;;9.63;4.80;;;;;;;;;;5086219;28;20036;-75
2024/01/20 08:01:56;;;;;;;10.80;4.90;;;;;;;;;;5078037;28;20029;-74
2024/01/20 08:04:21;;;;;;;11.03;4.20;;;;;;;;;;5070153;28;20027;-74
2024/01/20 08:06:46;;;;;;;9.17;4.03;;;;;;;;;;5073007;28;20111;-75
2024/01/20 08:09:12;;;;;;;8.53;4.43;;;;;;;;;;5083782;28;20024;-74
2024/01/20 08:11:37;;;;;;;9.90;4.23;;;;;;;;;;5077792;28;20528;-75
2024/01/20 08:14:02;;;;;;;10.07;4.63;;;;;;;;;;5083543;28;20032;-74
2024/01/20 08:16:28;;;;;;;9.70;4.13;;;;;;;;;;5082798;28;20119;-74
2024/01/20 08:18:55;;;;;;;11.30;4.17;;;;;;;;;;5085891;28;20040;-74
2024/01/20 08:21:20;;;;;;;8.07;3.57;;;;;;;;;;5083681;28;20047;-74
2024/01/20 08:23:46;;;;;;;11.97;4.23;;;;;;;;;;5080270;28;20481;-75
2024/01/20 08:26:11;;;;;;;13.30;4.83;;;;;;;;;;5082960;28;20068;-75
2024/01/20 08:28:36;;;;;;;9.93;4.57;;;;;;;;;;5075728;28;20020;-73
2024/01/20 08:31:01;;;;;;;10.40;4.30;;;;;;;;;;5085937;28;20395;-74
2024/01/20 08:33:26;;;;;;;8.33;4.30;;;;;;;;;;5078639;28;20028;-75
2024/01/20 08:35:51;;;;;;;9.90;3.90;;;;;;;;;;5088358;28;20103;-75
2024/01/20 08:38:17;;;;;;;8.57;4.50;;;;;;;;;;5076930;28;20032;-74
2024/01/20 08:40:42;;;;;;;9.53;4.50;;;;;;;;;;5076895;28;20028;-74
2024/01/20 08:43:07;;;;;;;9.53;3.93;;;;;;;;;;5079563;28;20033;-75
2024/01/20 08:45:32;;;;;;;7.40;4.13;;;;;;;;;;5073528;28;20480;-76
2024/01/20 08:47:57;;;;;;;11.40;4.03;;;;;;;;;;5073456;28;20109;-75
2024/01/20 08:50:23;;;;;;;11.67;4.50;;;;;;;;;;5080396;28;20032;-75
2024/01/20 08:52:48;;;;;;;12.63;5.03;;;;;;;;;;5071976;28;20031;-76
2024/01/20 08:55:13;;;;;;;11.67;4.87;;;;;;;;;;5073166;28;20036;-75
2024/01/20 08:57:38;;;;;;;9.57;3.90;;;;;;;;;;5073345;28;20033;-74
2024/01/20 09:00:05;;;;;;;8.90;3.97;;;;;;;;;;5079389;28;20097;-75
2024/01/20 09:02:30;;;;;;;10.93;4.93;;;;;;;;;;5077289;28;20051;-76
2024/01/20 09:04:55;;;;;;;9.03;4.57;;;;;;;;;;5077777;28;20425;-74
2024/01/20 09:07:21;;;;;;;10.93;4.47;;;;;;;;;;5073115;28;20443;-77
2024/01/20 09:09:47;;;;;;;9.23;4.57;;;;;;;;;;5078320;28;20032;-75
2024/01/20 09:12:12;;;;;;;17.83;5.90;;;;;;;;;;5072725;28;20033;-76
2024/01/20 09:14:37;;;;;;;11.87;4.37;;;;;;;;;;5072835;28;20062;-76
2024/01/20 09:17:03;;;;;;;9.40;4.03;;;;;;;;;;5073367;28;20028;-76
2024/01/20 09:19:28;;;;;;;10.47;4.40;;;;;;;;;;5075217;28;20039;-76
2024/01/20 09:21:53;;;;;;;8.90;4.13;;;;;;;;;;5074930;28;20050;-75
2024/01/20 09:24:18;;;;;;;9.00;4.40;;;;;;;;;;5071013;28;20028;-77
2024/01/20 09:26:43;;;;;;;9.07;4.60;;;;;;;;;;5077699;28;20073;-76
2024/01/20 09:29:09;;;;;;;10.03;4.93;;;;;;;;;;5080878;28;20020;-75
2024/01/20 09:31:34;;;;;;;10.87;4.63;;;;;;;;;;5097612;28;20036;-75
2024/01/20 09:33:59;;;;;;;10.13;4.57;;;;;;;;;;5098556;28;20023;-76
2024/01/20 09:36:24;;;;;;;9.63;4.73;;;;;;;;;;5087687;28;20051;-76
2024/01/20 09:38:49;;;;;;;10.20;4.57;;;;;;;;;;5095730;28;20032;-76
2024/01/20 09:41:15;;;;;;;11.43;4.77;;;;;;;;;;5090837;28;20077;-76
2024/01/20 09:43:40;;;;;;;9.70;4.10;;;;;;;;;;5092255;28;20036;-75
2024/01/20 09:46:06;;;;;;;9.60;4.07;;;;;;;;;;5095965;28;20027;-77
2024/01/20 09:48:31;;;;;;;12.03;4.47;;;;;;;;;;5092229;28;20099;-75
2024/01/20 09:50:57;;;;;;;11.87;4.80;;;;;;;;;;5084194;28;20488;-77
2024/01/20 09:53:24;;;;;;;8.60;4.20;;;;;;;;;;5076935;28;20032;-76
2024/01/20 09:55:49;;;;;;;9.30;4.53;;;;;;;;;;5072292;28;20049;-75
2024/01/20 09:58:16;;;;;;;9.10;4.40;;;;;;;;;;5080070;28;20029;-76
2024/01/20 10:00:41;;;;;;;8.60;4.13;;;;;;;;;;5076878;28;20020;-77
2024/01/20 10:03:10;;;;;;;9.17;4.40;;;;;;;;;;5079617;28;20048;-76
2024/01/20 10:05:36;;;;;;;11.37;4.60;;;;;;;;;;5074454;28;20081;-76
2024/01/20 10:08:02;;;;;;;9.27;4.70;;;;;;;;;;5073955;28;20036;-76
2024/01/20 10:10:27;;;;;;;9.43;4.67;;;;;;;;;;5077426;28;20115;-76
2024/01/20 10:12:53;;;;;;;11.80;5.47;;;;;;;;;;5071649;28;20067;-76
2024/01/20 10:15:19;;;;;;;9.05;4.68;;;;;;;;;;5071771;28;20051;-76
2024/01/20 10:17:44;;;;;;;10.93;5.25;;;;;;;;;;5071634;28;20107;-76
2024/01/20 10:20:17;;;;;;;9.33;4.80;;;;;;;;;;5077465;28;20120;-75
2024/01/20 10:22:42;;;;;;;8.50;4.22;;;;;;;;;;5071469;28;20031;-76
2024/01/20 10:25:07;;;;;;;7.87;4.17;;;;;;;;;;5071447;28;20435;-75
2024/01/20 10:27:32;;;;;;;9.00;4.43;;;;;;;;;;5071617;28;20033;-78
2024/01/20 10:29:58;;;;;;;10.20;4.20;;;;;;;;;;5076790;28;20054;-75
2024/01/20 10:32:24;;;;;;;11.28;4.78;;;;;;;;;;5073659;28;20028;-76
2024/01/20 10:34:49;;;;;;;7.47;4.50;;;;;;;;;;5071363;28;20032;-77
2024/01/20 10:37:14;;;;;;;11.30;5.40;;;;;;;;;;5071127;28;20028;-76
2024/01/20 10:39:45;;;;;;;12.48;5.30;;;;;;;;;;5074061;28;20067;-77
2024/01/20 10:42:14;;;;;;;11.60;5.53;;;;;;;;;;5072006;28;20550;-77
2024/01/20 10:44:49;;;;;;;8.73;5.07;;;;;;;;;;5071257;28;20024;-76
2024/01/20 10:47:16;;;;;;;11.05;5.10;;;;;;;;;;5071126;28;20526;-77
2024/01/20 10:49:43;;;;;;;16.92;5.80;;;;;;;;;;5073964;28;20024;-77
2024/01/20 10:52:09;;;;;;;9.55;4.85;;;;;;;;;;5074255;28;20032;-75
2024/01/20 10:54:35;;;;;;;10.60;4.70;;;;;;;;;;5084540;28;20036;-75
2024/01/20 10:57:00;;;;;;;10.60;5.68;;;;;;;;;;5069488;28;20040;-77
2024/01/20 10:59:27;;;;;;;11.48;5.22;;;;;;;;;;5071081;28;20071;-76
2024/01/20 11:01:52;;;;;;;8.40;5.18;;;;;;;;;;5080471;28;20032;-76
2024/01/20 11:04:18;;;;;;;8.63;4.90;;;;;;;;;;5069173;28;20039;-77
2024/01/20 11:06:44;;;;;;;8.93;4.82;;;;;;;;;;5071061;28;20013;-77
2024/01/20 11:09:09;;;;;;;9.38;4.53;;;;;;;;;;5070251;28;20503;-77
2024/01/20 11:11:35;;;;;;;11.15;4.60;;;;;;;;;;5064623;28;20032;-77
2024/01/20 11:14:00;;;;;;;8.02;4.35;;;;;;;;;;5076359;28;20036;-77
2024/01/20 11:16:28;;;;;;;10.02;4.47;;;;;;;;;;5075565;28;20036;-76
2024/01/20 11:19:03;;;;;;;10.52;4.47;;;;;;;;;;5068972;28;20411;-76
2024/01/20 11:21:28;;;;;;;8.73;4.22;;;;;;;;;;5075315;28;20044;-76
2024/01/20 11:24:00;;;;;;;9.05;4.72;;;;;;;;;;5070263;28;20486;-77
2024/01/20 11:26:35;;;;;;;7.68;4.47;;;;;;;;;;5058903;28;20032;-77
2024/01/20 11:29:01;;;;;;;9.15;4.93;;;;;;;;;;5072067;28;20035;-76
2024/01/20 11:31:28;;;;;;;9.20;4.70;;;;;;;;;;5077751;28;20043;-76
2024/01/20 11:33:54;;;;;;;8.70;4.20;;;;;;;;;;5069431;28;20048;-77
2024/01/20 11:36:19;;;;;;;10.48;5.05;;;;;;;;;;5070607;28;20028;-77
2024/01/20 11:38:45;;;;;;;8.35;4.40;;;;;;;;;;5069766;28;20058;-76
2024/01/20 11:41:10;;;;;;;6.50;3.78;;;;;;;;;;5074949;28;20457;-77
2024/01/20 11:43:35;;;;;;;8.77;4.65;;;;;;;;;;5071145;28;20020;-75
2024/01/20 11:46:00;;;;;;;7.80;4.63;;;;;;;;;;5083165;28;20033;-76
2024/01/20 11:48:26;;;;;;;7.20;4.05;;;;;;;;;;5076560;28;20063;-77
2024/01/20 11:50:51;;;;;;;9.32;4.38;;;;;;;;;;5078126;28;20039;-77
2024/01/20 11:53:17;;;;;;;8.70;4.60;;;;;;;;;;5074069;28;20028;-77
2024/01/20 11:55:59;;;;;;;11.43;4.13;;;;;;;;;;5070317;28;20111;-77
2024/01/20 11:58:24;;;;;;;10.20;4.35;;;;;;;;;;5078697;28;20032;-77
2024/01/20 12:00:51;;;;;;;10.40;5.10;;;;;;;;;;5080329;28;20036;-77
2024/01/20 12:03:16;;;;;;;9.40;4.32;;;;;;;;;;5085293;28;20403;-77
2024/01/20 12:05:42;;;;;;;10.02;4.82;;;;;;;;;;5075301;28;20024;-77
2024/01/20 12:08:07;;;;;;;11.63;4.80;;;;;;;;;;5074461;28;20507;-76
2024/01/20 12:10:32;;;;;;;8.98;4.10;;;;;;;;;;5076837;28;20024;-76
2024/01/20 12:12:59;;;;;;;8.82;4.85;;;;;;;;;;5076333;28;20039;-76
2024/01/20 12:15:24;;;;;;;9.10;4.28;;;;;;;;;;5068699;28;20501;-77
2024/01/20 12:17:50;;;;;;;8.98;4.50;;;;;;;;;;5069819;28;20067;-76
2024/01/20 12:20:15;;;;;;;8.77;4.68;;;;;;;;;;5073696;28;20055;-76
2024/01/20 12:22:40;;;;;;;9.20;4.80;;;;;;;;;;5076266;28;20024;-76
2024/01/20 12:25:05;;;;;;;8.77;4.20;;;;;;;;;;5069453;28;20020;-76
2024/01/20 12:27:31;;;;;;;8.20;3.50;;;;;;;;;;5075184;28;20029;-76
2024/01/20 12:29:56;;;;;;;8.70;4.32;;;;;;;;;;5071652;28;20100;-76
2024/01/20 12:32:21;;;;;;;7.30;4.32;;;;;;;;;;5073927;28;20032;-77
2024/01/20 12:34:46;;;;;;;9.05;4.28;;;;;;;;;;5076370;28;20102;-76
2024/01/20 12:37:11;;;;;;;9.65;4.15;;;;;;;;;;5069549;28;20048;-76
2024/01/20 12:39:36;;;;;;;8.27;3.58;;;;;;;;;;5076753;28;20389;-76
2024/01/20 12:42:02;;;;;;;10.82;3.63;;;;;;;;;;5072624;28;20048;-77
2024/01/20 12:44:27;;;;;;;7.85;4.38;;;;;;;;;;5069695;28;20039;-77
2024/01/20 12:46:52;;;;;;;6.25;3.45;;;;;;;;;;5076876;28;20453;-77
2024/01/20 12:49:18;;;;;;;9.63;4.15;;;;;;;;;;5077318;28;20081;-76
2024/01/20 12:51:43;;;;;;;9.80;4.53;;;;;;;;;;5080626;28;20098;-76
2024/01/20 12:54:08;;;;;;;11.63;4.13;;;;;;;;;;5068820;28;20508;-77
2024/01/20 12:56:34;;;;;;;7.43;3.60;;;;;;;;;;5073428;28;20118;-76
2024/01/20 12:59:00;;;;;;;16.08;4.57;;;;;;;;;;5083658;28;20047;-76
2024/01/20 13:01:25;;;;;;;9.68;4.07;;;;;;;;;;5074385;28;20055;-77
2024/01/20 13:03:50;;;;;;;7.63;3.53;;;;;;;;;;5074518;28;20104;-76
2024/01/20 13:06:16;;;;;;;9.82;4.20;;;;;;;;;;5081027;28;20427;-76
2024/01/20 13:08:41;;;;;;;10.43;4.82;;;;;;;;;;5072326;28;20029;-76
2024/01/20 13:11:06;;;;;;;9.70;4.70;;;;;;;;;;5080754;28;20063;-76
2024/01/20 13:13:31;;;;;;;9.05;4.03;;;;;;;;;;5078835;28;20032;-77
2024/01/20 13:15:56;;;;;;;7.15;3.55;;;;;;;;;;5076004;28;20079;-76
2024/01/20 13:18:22;;;;;;;10.15;4.20;;;;;;;;;;5077420;28;20036;-77
2024/01/20 13:20:47;;;;;;;10.25;4.60;;;;;;;;;;5075525;28;20724;-76
2024/01/20 13:23:12;;;;;;;8.52;4.22;;;;;;;;;;5084354;28;20108;-77
2024/01/20 13:25:39;;;;;;;7.95;3.75;;;;;;;;;;5082567;28;20115;-76
2024/01/20 13:28:04;;;;;;;9.38;4.28;;;;;;;;;;5080446;28;20028;-77
2024/01/20 13:30:30;;;;;;;10.55;4.60;;;;;;;;;;5079676;28;20096;-76
2024/01/20 13:32:55;;;;;;;7.03;3.67;;;;;;;;;;5077374;28;20040;-76
2024/01/20 13:35:20;;;;;;;6.68;3.80;;;;;;;;;;5070917;28;20613;-76
2024/01/20 13:37:45;;;;;;;9.13;4.35;;;;;;;;;;5076087;28;20611;-76
2024/01/20 13:40:11;;;;;;;7.40;3.97;;;;;;;;;;5074821;28;20051;-76
2024/01/20 13:42:36;;;;;;;9.30;3.92;;;;;;;;;;5062726;28;20119;-77
2024/01/20 13:45:02;;;;;;;9.35;3.90;;;;;;;;;;5077468;28;20041;-76
2024/01/20 13:47:28;;;;;;;7.78;3.63;;;;;;;;;;5081912;28;20036;-76
2024/01/20 13:49:53;;;;;;;6.75;3.60;;;;;;;;;;5075551;28;20044;-76
2024/01/20 13:52:18;;;;;;;8.35;4.20;;;;;;;;;;5077251;28;20025;-76
2024/01/20 13:54:43;;;;;;;7.03;3.42;;;;;;;;;;5078411;28;20043;-76
2024/01/20 13:57:09;;;;;;;9.88;3.65;;;;;;;;;;5078378;28;20044;-76
2024/01/20 13:59:34;;;;;;;8.00;3.90;;;;;;;;;;5078861;28;20040;-76
2024/01/20 14:02:00;;;;;;;9.00;4.07;;;;;;;;;;5081795;28;20028;-76
2024/01/20 14:04:25;;;;;;;8.30;4.25;;;;;;;;;;5071403;28;20033;-76
2024/01/20 14:06:50;;;;;;;7.18;3.28;;;;;;;;;;5078038;28;20036;-79
2024/01/20 14:09:15;;;;;;;8.00;3.58;;;;;;;;;;5076655;28;20057;-76
2024/01/20 14:11:41;;;;;;;11.15;4.93;;;;;;;;;;5086750;28;20456;-76
2024/01/20 14:14:06;;;;;;;8.85;3.90;;;;;;;;;;5072414;28;20051;-76
2024/01/20 14:16:31;;;;;;;9.73;3.85;;;;;;;;;;5076387;28;20086;-76
2024/01/20 14:18:58;;;;;;;7.70;3.67;;;;;;;;;;5074347;28;20119;-77
2024/01/20 14:21:23;;;;;;;6.95;3.28;;;;;;;;;;5078049;28;20039;-76
2024/01/20 14:23:49;;;;;;;7.75;3.50;;;;;;;;;;5076537;28;20029;-76